Aviation Digital Data Service (ADDS)

Output produced by METARs form (0713 UTC 24 March 2019)
found at http://www.aviationweather.gov/metar/data/
 
KBKW 240651Z AUTO 00000KT 10SM CLR 00/M13 A3025 RMK AO2 SLP259 T00001133 $
KBKW 240532Z 2406/2506 VRB03KT P6SM SCT250 
     FM241800 24008G15KT P6SM SCT200 
     FM242200 25008G15KT P6SM BKN100 
     FM250000 25005KT P6SM BKN070
       
KBLF 240652Z AUTO 00000KT 10SM CLR 03/M12 A3026 RMK AO2 SLP250 T00281122
KBLF 240520Z 2406/2506 24003KT P6SM SCT250 
     FM241900 25009G17KT P6SM BKN150 
     FM242300 26005KT P6SM BKN080
       
KW22 240655Z AUTO 00000KT 10SM CLR M01/M08 A3026 RMK AO2
KCRW 240654Z 00000KT 10SM FEW250 M01/M06 A3027 RMK AO2 SLP255 T10111061
KCRW 240532Z 2406/2506 00000KT P6SM SCT250 
     FM242200 24006KT P6SM BKN100 
     FM250200 21004KT P6SM BKN060
       
KCKB 240653Z AUTO 00000KT 10SM CLR M01/M07 A3026 RMK AO2 SLP251 T10111072
KCKB 240532Z 2406/2506 00000KT P6SM SCT250 
     FM242200 VRB03KT P6SM OVC100 
     FM250200 00000KT P6SM OVC050
       
KEKN 240651Z AUTO 00000KT 10SM CLR M04/M08 A3027 RMK AO2 SLP274 T10441078 TSNO
KEKN 240532Z 2406/2506 00000KT P6SM SCT250 
     FM242200 27006KT P6SM BKN100 
     FM250400 21004KT P6SM BKN050
       
KHTS 240651Z COR 07003KT 10SM CLR 01/M06 A3026 RMK AO2 SLP248 T00111056
KHTS 240532Z 2406/2506 00000KT P6SM FEW250 
     FM242000 24006KT P6SM BKN100 
     FM250200 VRB03KT P6SM OVC050
       
KLWB 240655Z AUTO 00000KT 10SM CLR M04/M09 A3029 RMK AO2 T10371093
KLWB 240520Z 2406/2506 00000KT P6SM SCT250 
     FM241900 24007KT P6SM BKN150 
     FM250000 00000KT P6SM BKN090
       
K6L4 240655Z AUTO 00000KT 10SM CLR 05/M11 A3025 RMK AO2
KMRB 240653Z AUTO 16004KT 10SM CLR 01/M08 A3024 RMK AO2 SLP244 T00111083
KMRB 240523Z 2406/2506 VRB03KT P6SM SKC 
     FM241500 21008KT P6SM FEW150 SCT250 
     FM250000 VRB03KT P6SM BKN150 BKN250
       
KMGW 240653Z AUTO 00000KT 10SM CLR M01/M07 A3026 RMK AO2 SLP257 T10111072
KMGW 240524Z 2406/2506 21003KT P6SM SKC 
     FM241700 23005KT P6SM BKN200 
     FM250200 22004KT P6SM VCSH OVC060
       
KPKB 240653Z AUTO 00000KT 10SM CLR M02/M07 A3030 RMK AO2 SLP265 T10171067
KPKB 240532Z 2406/2506 00000KT P6SM FEW250 
     FM242000 23005KT P6SM BKN100 
     FM250500 VRB03KT P6SM -SHRA OVC020
       
KW99 240655Z AUTO 00000KT 10SM CLR M04/M06 A3026 RMK AO2 T10361059
KI16 240655Z AUTO 10SM CLR M02/M05 A3032 RMK AO2 T10251049
KHLG 240653Z AUTO 19007KT 10SM CLR 02/M08 A3024 RMK AO2 SLP249 T00171083
KHLG 240524Z 2406/2506 21005KT P6SM SCT250 
     FM242000 24006KT P6SM BKN090 
     FM250400 22004KT 6SM -SHRA BR OVC025